createdAt,value
2023-04-19T00:01:37.911Z,70.19
2023-04-19T00:03:39.594Z,70.15
2023-04-19T00:05:41.668Z,70.25
2023-04-19T00:07:43.423Z,70.69
2023-04-19T00:09:44.932Z,71.01
2023-04-19T00:11:46.375Z,70.52
2023-04-19T00:13:49.295Z,70.23
2023-04-19T00:15:50.840Z,70.21
2023-04-19T00:17:52.391Z,70.20
2023-04-19T00:19:53.928Z,70.28
2023-04-19T00:21:55.415Z,70.79
2023-04-19T00:23:56.883Z,70.76
2023-04-19T00:25:58.359Z,70.35
2023-04-19T00:28:00.203Z,70.17
2023-04-19T00:30:01.992Z,70.46
2023-04-19T00:32:05.845Z,70.78
2023-04-19T00:34:07.387Z,70.81
2023-04-19T00:36:10.611Z,70.62
2023-04-19T00:38:12.119Z,70.76
2023-04-19T00:40:13.667Z,70.79
2023-04-19T00:42:15.112Z,71.16
2023-04-19T00:44:16.702Z,71.07
2023-04-19T00:46:18.532Z,71.11
2023-04-19T00:48:20.162Z,71.43
2023-04-19T00:50:21.914Z,71.61
2023-04-19T00:52:23.476Z,71.60
2023-04-19T00:54:25.602Z,71.28
2023-04-19T00:56:27.534Z,71.20
2023-04-19T00:58:31.460Z,71.89
2023-04-19T01:00:33.503Z,71.60
2023-04-19T01:02:35.791Z,71.39
2023-04-19T01:04:37.543Z,71.76
2023-04-19T01:06:40.659Z,71.43
2023-04-19T01:08:42.176Z,71.67
2023-04-19T01:10:43.681Z,71.32
2023-04-19T01:12:45.180Z,71.21
2023-04-19T01:14:46.693Z,71.29
2023-04-19T01:16:48.244Z,71.34
2023-04-19T01:18:49.741Z,71.56
2023-04-19T01:20:52.012Z,71.60
2023-04-19T01:22:53.589Z,71.36
2023-04-19T01:24:55.048Z,71.23
2023-04-19T01:26:56.507Z,71.30
2023-04-19T01:28:58.032Z,71.55
2023-04-19T01:30:59.761Z,71.54
2023-04-19T01:33:01.332Z,71.88
2023-04-19T01:35:03.097Z,72.09
2023-04-19T01:37:04.577Z,72.29
2023-04-19T01:39:06.115Z,72.29
2023-04-19T01:41:07.983Z,72.23
2023-04-19T01:43:13.132Z,71.80
2023-04-19T01:45:14.638Z,71.77
2023-04-19T01:47:16.150Z,72.10
2023-04-19T01:49:17.596Z,72.31
2023-04-19T01:51:21.710Z,72.19
2023-04-19T01:53:23.175Z,72.73
2023-04-19T01:55:24.964Z,72.80
2023-04-19T01:57:26.440Z,72.23
2023-04-19T01:59:27.916Z,72.21
2023-04-19T02:01:29.496Z,72.62
2023-04-19T02:03:31.125Z,72.65
2023-04-19T02:05:32.809Z,72.71
2023-04-19T02:07:34.749Z,72.44
2023-04-19T02:09:37.357Z,72.33
2023-04-19T02:11:38.942Z,72.37
2023-04-19T02:13:41.762Z,72.80
2023-04-19T02:15:43.222Z,72.51
2023-04-19T02:17:46.817Z,73.01
2023-04-19T02:19:48.270Z,72.50
2023-04-19T02:21:49.831Z,72.41
2023-04-19T02:23:51.324Z,72.47
2023-04-19T02:25:53.704Z,72.46
2023-04-19T02:27:55.335Z,72.69
2023-04-19T02:29:56.909Z,72.63
2023-04-19T02:31:58.433Z,73.07
2023-04-19T02:33:59.932Z,73.07
2023-04-19T02:36:01.408Z,72.94
2023-04-19T02:38:03.851Z,72.48
2023-04-19T02:40:06.024Z,73.03
2023-04-19T02:42:07.477Z,72.43
2023-04-19T02:44:08.926Z,72.84
2023-04-19T02:46:10.555Z,73.14
2023-04-19T02:48:12.111Z,72.46
2023-04-19T02:50:15.023Z,72.36
2023-04-19T02:52:16.680Z,72.50
2023-04-19T02:54:18.217Z,72.99
2023-04-19T02:56:19.684Z,73.27
2023-04-19T02:58:21.230Z,72.77
2023-04-19T03:00:22.710Z,72.93
2023-04-19T03:02:24.466Z,73.10
2023-04-19T03:04:25.985Z,73.07
2023-04-19T03:06:27.477Z,73.07
2023-04-19T03:08:29.400Z,73.49
2023-04-19T03:10:30.911Z,73.40
2023-04-19T03:12:32.380Z,73.55
2023-04-19T03:14:34.160Z,73.07
2023-04-19T03:16:35.649Z,73.65
2023-04-19T03:18:37.128Z,73.23
2023-04-19T03:20:38.751Z,73.43
2023-04-19T03:22:40.254Z,73.62
2023-04-19T03:24:41.852Z,73.45
2023-04-19T03:26:43.303Z,72.96
2023-04-19T03:28:44.786Z,73.05
2023-04-19T03:30:46.328Z,73.14
2023-04-19T03:32:48.227Z,72.62
2023-04-19T03:34:49.736Z,73.54
2023-04-19T03:36:51.210Z,73.27
2023-04-19T03:38:52.791Z,72.95
2023-04-19T03:40:56.020Z,73.06
2023-04-19T03:42:57.476Z,73.50
2023-04-19T03:44:58.930Z,73.51
2023-04-19T03:47:00.431Z,73.10
2023-04-19T03:49:02.025Z,72.83
2023-04-19T03:51:03.678Z,73.33
2023-04-19T03:53:07.974Z,73.21
2023-04-19T03:55:10.785Z,73.16
2023-04-19T03:57:15.132Z,72.84
2023-04-19T03:59:16.581Z,73.26
2023-04-19T04:01:21.665Z,73.30
2023-04-19T04:03:23.234Z,73.38
2023-04-19T04:05:28.428Z,73.57
2023-04-19T04:07:29.932Z,73.25
2023-04-19T04:09:31.455Z,73.67
2023-04-19T04:11:33.003Z,73.28
2023-04-19T04:13:34.450Z,73.24
2023-04-19T04:15:36.232Z,72.76
2023-04-19T04:17:37.739Z,72.90
2023-04-19T04:19:39.224Z,73.16
2023-04-19T04:21:40.942Z,72.94
2023-04-19T04:23:42.420Z,73.27
2023-04-19T04:25:43.873Z,73.42
2023-04-19T04:27:45.658Z,73.41
2023-04-19T04:29:47.343Z,72.78
2023-04-19T04:31:48.847Z,73.21
2023-04-19T04:33:50.988Z,73.18
2023-04-19T04:35:53.536Z,72.63
2023-04-19T04:37:55.064Z,72.82
2023-04-19T04:39:56.602Z,72.18
2023-04-19T04:41:58.063Z,73.01
2023-04-19T04:44:12.021Z,72.62
2023-04-19T04:46:14.239Z,72.55
2023-04-19T04:48:16.168Z,72.67
2023-04-19T04:50:17.834Z,72.23
2023-04-19T04:52:19.298Z,71.82
2023-04-19T04:54:20.777Z,72.36
2023-04-19T04:56:22.338Z,72.19
2023-04-19T04:58:23.832Z,71.88
2023-04-19T05:00:25.620Z,72.29
2023-04-19T05:02:27.213Z,71.80
2023-04-19T05:04:28.835Z,72.49
2023-04-19T05:06:30.290Z,72.44
2023-04-19T05:08:31.814Z,72.28
2023-04-19T05:10:33.321Z,71.67
2023-04-19T05:12:34.813Z,71.57
2023-04-19T05:14:36.301Z,72.11
2023-04-19T05:16:37.857Z,71.46
2023-04-19T05:18:39.360Z,71.37
2023-04-19T05:20:40.872Z,71.51
2023-04-19T05:22:42.334Z,71.61
2023-04-19T05:24:43.776Z,71.28
2023-04-19T05:26:45.248Z,71.48
2023-04-19T05:28:46.854Z,71.83
2023-04-19T05:30:48.328Z,71.80
2023-04-19T05:32:50.001Z,72.02
2023-04-19T05:34:51.573Z,71.21
2023-04-19T05:36:53.050Z,71.42
2023-04-19T05:38:54.525Z,71.76
2023-04-19T05:40:56.059Z,71.35
2023-04-19T05:42:57.509Z,71.02
2023-04-19T05:44:59.026Z,70.86
2023-04-19T05:47:00.745Z,71.44
2023-04-19T05:49:02.628Z,71.44
2023-04-19T05:51:04.233Z,70.89
2023-04-19T05:53:05.835Z,70.91
2023-04-19T05:55:07.678Z,70.49
2023-04-19T05:57:09.203Z,70.98
2023-04-19T05:59:11.598Z,70.99
2023-04-19T06:01:13.664Z,71.22
2023-04-19T06:03:15.339Z,70.93
2023-04-19T06:05:17.240Z,71.38
2023-04-19T06:07:30.903Z,71.20
2023-04-19T06:09:33.417Z,70.63
2023-04-19T06:11:42.786Z,71.22
2023-04-19T06:13:50.891Z,71.13
2023-04-19T06:15:52.450Z,70.56
2023-04-19T06:17:54.080Z,71.02
2023-04-19T06:19:55.743Z,71.20
2023-04-19T06:21:57.298Z,70.52
2023-04-19T06:23:58.854Z,70.75
2023-04-19T06:26:00.524Z,70.91
2023-04-19T06:28:02.055Z,70.63
2023-04-19T06:30:04.157Z,70.23
2023-04-19T06:32:05.645Z,70.35
2023-04-19T06:34:07.121Z,70.34
2023-04-19T06:36:08.953Z,70.28
2023-04-19T06:38:10.465Z,69.74
2023-04-19T06:40:12.138Z,69.92
2023-04-19T06:42:13.814Z,70.10
2023-04-19T06:44:15.553Z,69.45
2023-04-19T06:46:17.242Z,69.58
2023-04-19T06:48:18.773Z,69.08
2023-04-19T06:50:20.706Z,69.49
2023-04-19T06:52:22.324Z,69.33
2023-04-19T06:54:24.049Z,69.75
2023-04-19T06:56:45.939Z,69.61
2023-04-19T06:58:47.434Z,68.95
2023-04-19T07:00:48.894Z,69.24
2023-04-19T07:02:51.050Z,69.26
2023-04-19T07:04:52.753Z,68.82
2023-04-19T07:06:54.300Z,68.42
2023-04-19T07:08:55.780Z,69.42
2023-04-19T07:10:57.296Z,68.59
2023-04-19T07:12:58.772Z,68.51
2023-04-19T07:15:00.348Z,68.35
2023-04-19T07:17:03.717Z,68.21
2023-04-19T07:19:05.254Z,68.41
2023-04-19T07:21:06.753Z,69.10
2023-04-19T07:23:08.196Z,68.04
2023-04-19T07:25:10.440Z,67.99
2023-04-19T07:27:12.146Z,67.77
2023-04-19T07:29:13.645Z,67.45
2023-04-19T07:31:16.807Z,67.79
2023-04-19T07:33:18.477Z,67.11
2023-04-19T07:35:20.127Z,67.14
2023-04-19T07:37:21.654Z,67.36
2023-04-19T07:39:23.196Z,67.43
2023-04-19T07:41:24.697Z,67.07
2023-04-19T07:43:26.948Z,67.01
2023-04-19T07:45:30.729Z,66.80
2023-04-19T07:47:32.587Z,66.26
2023-04-19T07:49:34.555Z,66.17
2023-04-19T07:51:36.147Z,66.17
2023-04-19T07:53:39.961Z,66.06
2023-04-19T07:55:41.399Z,65.82
2023-04-19T07:57:48.288Z,65.96
2023-04-19T07:59:49.800Z,65.43
2023-04-19T08:01:51.444Z,65.33
2023-04-19T08:03:53.198Z,65.23
2023-04-19T08:05:54.993Z,64.69
2023-04-19T08:07:57.071Z,64.57
2023-04-19T08:09:58.578Z,64.38
2023-04-19T08:12:01.259Z,63.90
2023-04-19T08:14:26.829Z,64.21
2023-04-19T08:16:56.279Z,63.97
2023-04-19T08:18:46.480Z,63.47
2023-04-19T08:20:48.368Z,63.97
2023-04-19T08:22:50.060Z,63.84
2023-04-19T08:24:52.020Z,63.99
2023-04-19T08:26:54.261Z,63.83
2023-04-19T08:28:55.964Z,64.37
2023-04-19T08:30:59.146Z,64.16
2023-04-19T08:33:01.379Z,63.55
2023-04-19T08:35:03.839Z,62.78
2023-04-19T08:37:07.336Z,63.42
2023-04-19T08:39:24.933Z,63.60
2023-04-19T08:41:33.160Z,63.31
2023-04-19T08:43:38.098Z,63.07
2023-04-19T08:45:41.253Z,63.06
2023-04-19T08:49:53.713Z,61.23
2023-04-19T08:52:08.103Z,61.51
2023-04-19T08:54:10.910Z,60.86
2023-04-19T08:56:24.054Z,61.23
2023-04-19T08:58:45.825Z,60.03
2023-04-19T09:00:54.510Z,59.65
2023-04-19T09:02:56.262Z,58.44
2023-04-19T09:04:58.154Z,59.04
2023-04-19T09:06:59.819Z,58.68
2023-04-19T09:09:43.051Z,59.89
2023-04-19T09:11:47.745Z,57.90
2023-04-19T09:13:50.000Z,57.39
2023-04-19T09:15:53.901Z,57.53
2023-04-19T09:18:28.987Z,57.96
2023-04-19T09:20:40.305Z,58.62
2023-04-19T09:22:41.848Z,58.30
2023-04-19T09:26:57.890Z,57.78
2023-04-19T09:29:04.910Z,57.77
2023-04-19T09:31:33.202Z,58.44
2023-04-19T09:33:39.410Z,57.72
2023-04-19T09:35:48.020Z,57.22
2023-04-19T09:38:05.825Z,57.36
2023-04-19T09:40:24.809Z,58.45
2023-04-19T09:43:04.309Z,57.67
2023-04-19T09:47:25.562Z,58.56
2023-04-19T09:49:41.805Z,57.39
2023-04-19T09:51:56.623Z,58.98
2023-04-19T09:53:58.261Z,56.88
2023-04-19T09:56:02.368Z,58.25
2023-04-19T09:58:04.420Z,59.16
2023-04-19T10:00:08.963Z,59.63
2023-04-19T10:02:11.872Z,58.37
2023-04-19T10:04:32.708Z,58.32
2023-04-19T10:06:58.451Z,55.26
2023-04-19T10:08:59.524Z,57.01
2023-04-19T10:11:02.563Z,56.80
2023-04-19T10:13:19.284Z,56.54
2023-04-19T10:15:23.399Z,57.16
2023-04-19T10:17:25.937Z,56.25
2023-04-19T10:19:28.972Z,56.51
2023-04-19T10:21:31.870Z,56.08
2023-04-19T10:23:33.780Z,56.36
2023-04-19T10:25:38.429Z,55.41
2023-04-19T10:27:41.949Z,55.18
2023-04-19T10:29:59.648Z,56.07
2023-04-19T10:32:05.158Z,55.83
2023-04-19T10:34:06.660Z,55.02
2023-04-19T10:36:14.844Z,54.47
2023-04-19T10:38:16.571Z,54.26
2023-04-19T10:40:57.051Z,53.73
2023-04-19T10:43:13.538Z,53.90
2023-04-19T10:45:34.944Z,53.92
2023-04-19T10:47:45.522Z,54.33
2023-04-19T10:49:47.177Z,52.62
2023-04-19T10:51:54.881Z,53.29
2023-04-19T10:54:01.835Z,51.43
2023-04-19T10:56:03.392Z,51.56
2023-04-19T10:58:06.476Z,53.49
2023-04-19T11:00:21.534Z,53.34
2023-04-19T11:02:23.183Z,53.36
2023-04-19T11:04:58.087Z,55.03
2023-04-19T11:07:07.280Z,54.38
2023-04-19T11:09:10.722Z,54.69
2023-04-19T11:11:13.562Z,55.12
2023-04-19T11:13:16.049Z,54.82
2023-04-19T11:15:21.723Z,55.59
2023-04-19T11:17:32.033Z,55.52
2023-04-19T11:19:33.698Z,53.23
2023-04-19T11:21:40.911Z,54.75
2023-04-19T11:23:42.418Z,55.53
2023-04-19T11:25:45.197Z,54.93
2023-04-19T11:27:48.879Z,54.55
2023-04-19T11:29:50.473Z,54.20
2023-04-19T11:31:52.185Z,55.04
2023-04-19T11:33:54.148Z,54.06
2023-04-19T11:35:55.732Z,53.38
2023-04-19T11:37:59.041Z,53.58
2023-04-19T11:40:02.113Z,51.94
2023-04-19T11:42:05.226Z,53.09
2023-04-19T11:44:19.791Z,53.60
2023-04-19T11:46:21.415Z,53.14
2023-04-19T11:48:22.930Z,50.96
2023-04-19T11:50:38.815Z,50.84
2023-04-19T11:52:40.486Z,51.24
2023-04-19T11:54:42.190Z,51.25
2023-04-19T11:56:59.135Z,52.21
2023-04-19T11:59:00.817Z,50.09
2023-04-19T12:01:06.580Z,50.39
2023-04-19T12:03:08.807Z,51.91
2023-04-19T12:05:15.576Z,52.85
2023-04-19T12:07:17.172Z,45.67
2023-04-19T12:09:22.895Z,51.20
2023-04-19T12:11:41.895Z,52.00
2023-04-19T12:13:44.588Z,52.61
2023-04-19T12:15:46.918Z,52.13
2023-04-19T12:17:59.557Z,51.91
2023-04-19T12:20:01.137Z,51.05
2023-04-19T12:22:09.675Z,49.93
2023-04-19T12:24:11.026Z,51.25
2023-04-19T12:26:12.618Z,50.17
2023-04-19T12:28:15.455Z,48.80
2023-04-19T12:30:16.993Z,48.57
2023-04-19T12:32:18.744Z,47.40
2023-04-19T12:34:20.888Z,48.94
2023-04-19T12:36:22.443Z,47.81
2023-04-19T12:38:23.944Z,48.59
2023-04-19T12:40:26.611Z,48.81
2023-04-19T12:42:28.035Z,50.43
2023-04-19T12:44:29.484Z,50.20
2023-04-19T12:46:31.234Z,50.28
2023-04-19T12:48:32.826Z,48.96
2023-04-19T12:50:34.351Z,48.68
2023-04-19T12:52:36.131Z,48.31
2023-04-19T12:54:37.589Z,48.55
2023-04-19T12:56:39.145Z,48.72
2023-04-19T12:58:40.682Z,49.05
2023-04-19T13:00:42.862Z,48.73
2023-04-19T13:02:44.532Z,46.41
2023-04-19T13:04:46.268Z,49.12
2023-04-19T13:06:47.866Z,48.47
2023-04-19T13:08:49.695Z,48.17
2023-04-19T13:10:52.413Z,48.00
2023-04-19T13:12:53.874Z,48.14
2023-04-19T13:14:55.455Z,48.07
2023-04-19T13:16:56.940Z,49.20
2023-04-19T13:18:58.578Z,46.70
2023-04-19T13:21:00.135Z,48.85
2023-04-19T13:23:01.588Z,48.63
2023-04-19T13:25:03.930Z,48.36
2023-04-19T13:27:08.601Z,47.92
2023-04-19T13:29:10.535Z,48.81
2023-04-19T13:31:12.205Z,48.79
2023-04-19T13:33:13.773Z,48.62
2023-04-19T13:35:15.245Z,48.83
2023-04-19T13:37:16.928Z,48.46
2023-04-19T13:39:18.394Z,47.66
2023-04-19T13:41:20.583Z,48.58
2023-04-19T13:43:22.114Z,47.34
2023-04-19T13:45:23.634Z,47.05
2023-04-19T13:47:25.177Z,47.88
2023-04-19T13:49:26.720Z,49.34
2023-04-19T13:51:35.926Z,48.22
2023-04-19T13:53:48.290Z,48.66
2023-04-19T13:55:49.911Z,48.16
2023-04-19T13:57:51.382Z,48.83
2023-04-19T13:59:52.926Z,48.59
2023-04-19T14:01:55.985Z,48.20
2023-04-19T14:03:57.806Z,49.28
2023-04-19T14:05:59.428Z,48.84
2023-04-19T14:08:00.994Z,49.20
2023-04-19T14:10:02.507Z,49.02
2023-04-19T14:12:04.550Z,49.11
2023-04-19T14:14:06.397Z,49.56
2023-04-19T14:16:08.145Z,48.75
2023-04-19T14:18:09.774Z,49.79
2023-04-19T14:20:11.541Z,49.22
2023-04-19T14:22:13.045Z,49.47
2023-04-19T14:24:14.891Z,49.71
2023-04-19T14:26:16.525Z,49.49
2023-04-19T14:28:18.512Z,49.89
2023-04-19T14:30:20.752Z,49.79
2023-04-19T14:32:26.622Z,48.98
2023-04-19T14:34:28.789Z,49.80
2023-04-19T14:36:30.250Z,49.75
2023-04-19T14:38:32.534Z,49.75
2023-04-19T14:40:34.016Z,49.59
2023-04-19T14:42:35.550Z,49.89
2023-04-19T14:44:37.382Z,48.95
2023-04-19T14:46:38.840Z,51.69
2023-04-19T14:48:40.437Z,49.93
2023-04-19T14:50:41.914Z,50.67
2023-04-19T14:52:43.402Z,50.01
2023-04-19T14:54:45.386Z,50.50
2023-04-19T14:56:47.037Z,50.73
2023-04-19T14:58:48.503Z,50.27
2023-04-19T15:00:49.962Z,50.54
2023-04-19T15:02:51.585Z,50.46
2023-04-19T15:04:53.954Z,50.11
2023-04-19T15:06:55.560Z,50.34
2023-04-19T15:08:57.136Z,49.75
2023-04-19T15:10:59.013Z,49.73
2023-04-19T15:13:00.489Z,49.88
2023-04-19T15:15:02.051Z,50.48
2023-04-19T15:17:04.000Z,50.36
2023-04-19T15:19:07.436Z,49.86
2023-04-19T15:21:09.163Z,50.06
2023-04-19T15:23:10.642Z,50.08
2023-04-19T15:25:12.098Z,50.15
2023-04-19T15:27:13.554Z,49.58
2023-04-19T15:29:15.572Z,49.72
2023-04-19T15:31:17.686Z,49.95
2023-04-19T15:33:19.266Z,49.85
2023-04-19T15:35:21.419Z,49.89
2023-04-19T15:37:22.943Z,49.40
2023-04-19T15:39:25.340Z,50.16
2023-04-19T15:41:26.949Z,49.49
2023-04-19T15:43:28.458Z,50.10
2023-04-19T15:45:30.048Z,49.30
2023-04-19T15:47:31.549Z,49.56
2023-04-19T15:49:33.059Z,49.56
2023-04-19T15:51:34.521Z,49.60
2023-04-19T15:53:36.230Z,49.66
2023-04-19T15:55:38.985Z,49.22
2023-04-19T15:57:40.474Z,49.73
2023-04-19T15:59:41.945Z,49.83
2023-04-19T16:01:43.458Z,49.60
2023-04-19T16:03:45.192Z,49.39
2023-04-19T16:05:46.821Z,50.09
2023-04-19T16:07:48.378Z,50.00
2023-04-19T16:09:49.883Z,49.89
2023-04-19T16:11:51.363Z,50.21
2023-04-19T16:13:52.899Z,50.33
2023-04-19T16:15:54.497Z,50.22
2023-04-19T16:17:55.988Z,49.57
2023-04-19T16:19:57.818Z,50.04
2023-04-19T16:22:02.057Z,50.69
2023-04-19T16:24:03.597Z,50.63
2023-04-19T16:26:05.191Z,50.78
2023-04-19T16:28:06.877Z,50.83
2023-04-19T16:30:12.021Z,50.99
2023-04-19T16:32:13.529Z,50.60
2023-04-19T16:34:15.153Z,50.70
2023-04-19T16:36:16.913Z,51.03
2023-04-19T16:38:18.378Z,50.79
2023-04-19T16:40:21.649Z,51.16
2023-04-19T16:42:23.106Z,51.73
2023-04-19T16:44:24.618Z,51.79
2023-04-19T16:46:26.182Z,52.26
2023-04-19T16:48:27.743Z,51.79
2023-04-19T16:50:29.284Z,51.82
2023-04-19T16:52:32.171Z,52.09
2023-04-19T16:54:33.695Z,51.78
2023-04-19T16:56:35.229Z,52.71
2023-04-19T16:58:36.862Z,52.18
2023-04-19T17:00:38.361Z,52.51
2023-04-19T17:02:40.047Z,52.31
2023-04-19T17:04:41.893Z,52.99
2023-04-19T17:06:43.761Z,52.76
2023-04-19T17:08:45.255Z,53.19
2023-04-19T17:10:46.727Z,53.97
2023-04-19T17:12:48.716Z,51.21
2023-04-19T17:14:50.388Z,53.10
2023-04-19T17:16:51.862Z,53.57
2023-04-19T17:18:56.470Z,52.22
2023-04-19T17:20:58.415Z,53.47
2023-04-19T17:22:59.877Z,53.91
2023-04-19T17:25:02.256Z,53.11
2023-04-19T17:27:03.897Z,54.33
2023-04-19T17:29:05.706Z,54.30
2023-04-19T17:31:08.089Z,54.78
2023-04-19T17:33:09.625Z,53.65
2023-04-19T17:35:11.230Z,54.30
2023-04-19T17:37:12.715Z,55.36
2023-04-19T17:39:14.367Z,55.37
2023-04-19T17:41:16.410Z,55.42
2023-04-19T17:43:18.017Z,55.75
2023-04-19T17:45:19.628Z,55.50
2023-04-19T17:47:21.169Z,56.36
2023-04-19T17:49:22.892Z,55.88
2023-04-19T17:51:24.397Z,56.20
2023-04-19T17:53:25.864Z,55.85
2023-04-19T17:55:28.604Z,56.70
2023-04-19T17:57:31.956Z,56.43
2023-04-19T17:59:33.496Z,55.65
2023-04-19T18:01:35.303Z,55.27
2023-04-19T18:03:37.274Z,55.72
2023-04-19T18:05:40.001Z,56.51
2023-04-19T18:07:41.572Z,56.42
2023-04-19T18:09:43.157Z,56.07
2023-04-19T18:11:45.062Z,55.94
2023-04-19T18:13:46.616Z,56.45
2023-04-19T18:15:48.114Z,55.53
2023-04-19T18:17:49.681Z,55.96
2023-04-19T18:19:51.279Z,56.32
2023-04-19T18:21:52.725Z,56.30
2023-04-19T18:23:57.098Z,56.67
2023-04-19T18:26:02.256Z,56.02
2023-04-19T18:28:04.479Z,56.69
2023-04-19T18:30:06.942Z,56.49
2023-04-19T18:32:08.504Z,57.40
2023-04-19T18:34:12.357Z,57.65
2023-04-19T18:36:14.337Z,57.28
2023-04-19T18:38:15.849Z,56.99
2023-04-19T18:40:17.753Z,57.16
2023-04-19T18:42:19.230Z,56.83
2023-04-19T18:44:44.040Z,56.87
2023-04-19T18:46:42.451Z,57.62
2023-04-19T18:48:43.948Z,57.93
2023-04-19T18:50:45.719Z,58.40
2023-04-19T18:52:47.204Z,58.58
2023-04-19T18:54:48.785Z,58.32
2023-04-19T18:57:19.152Z,58.47
2023-04-19T18:59:14.003Z,58.14
2023-04-19T19:01:15.836Z,59.49
2023-04-19T19:03:43.871Z,58.44
2023-04-19T19:05:39.094Z,58.71
2023-04-19T19:07:41.634Z,59.34
2023-04-19T19:09:55.028Z,59.31
2023-04-19T19:11:57.598Z,60.02
2023-04-19T19:13:59.090Z,59.46
2023-04-19T19:16:00.707Z,59.75
2023-04-19T19:18:03.325Z,59.88
2023-04-19T19:20:06.788Z,59.77
2023-04-19T19:22:22.293Z,59.92
2023-04-19T19:24:28.777Z,59.47
2023-04-19T19:26:30.266Z,59.51
2023-04-19T19:28:31.819Z,60.08
2023-04-19T19:30:34.625Z,59.67
2023-04-19T19:32:36.235Z,60.08
2023-04-19T19:34:51.284Z,59.51
2023-04-19T19:36:56.792Z,60.46
2023-04-19T19:38:58.322Z,60.74
2023-04-19T19:41:48.917Z,61.18
2023-04-19T19:43:21.328Z,60.75
2023-04-19T19:45:23.369Z,60.66
2023-04-19T19:47:27.390Z,60.33
2023-04-19T19:49:28.982Z,60.57
2023-04-19T19:51:52.949Z,60.62
2023-04-19T19:53:52.081Z,60.45
2023-04-19T19:55:53.612Z,60.89
2023-04-19T20:00:18.033Z,60.25
2023-04-19T20:02:21.896Z,59.32
2023-04-19T20:04:24.208Z,60.13
2023-04-19T20:07:15.552Z,60.46
2023-04-19T20:08:49.926Z,60.75
2023-04-19T20:10:51.496Z,60.34
2023-04-19T20:12:52.978Z,60.77
2023-04-19T20:14:54.503Z,60.32
2023-04-19T20:16:56.450Z,60.55
2023-04-19T20:18:57.913Z,60.11
2023-04-19T20:20:59.482Z,60.15
2023-04-19T20:23:00.952Z,59.98
2023-04-19T20:25:02.492Z,60.48
2023-04-19T20:27:04.137Z,60.41
2023-04-19T20:29:05.979Z,60.84
2023-04-19T20:31:07.451Z,60.62
2023-04-19T20:33:09.141Z,60.81
2023-04-19T20:35:12.046Z,60.30
2023-04-19T20:37:13.806Z,61.21
2023-04-19T20:39:15.654Z,60.65
2023-04-19T20:41:18.435Z,60.84
2023-04-19T20:43:20.022Z,61.01
2023-04-19T20:45:21.518Z,60.57
2023-04-19T20:47:24.947Z,60.98
2023-04-19T20:49:26.456Z,61.48
2023-04-19T20:51:27.999Z,61.91
2023-04-19T20:53:29.514Z,60.96
2023-04-19T20:55:31.101Z,60.69
2023-04-19T20:57:32.562Z,60.61
2023-04-19T20:59:34.106Z,60.48
2023-04-19T21:01:35.681Z,60.85
2023-04-19T21:03:37.377Z,61.53
2023-04-19T21:05:38.998Z,61.09
2023-04-19T21:07:40.612Z,60.96
2023-04-19T21:09:42.070Z,61.61
2023-04-19T21:11:43.587Z,61.20
2023-04-19T21:13:45.149Z,61.33
2023-04-19T21:15:46.755Z,61.15
2023-04-19T21:17:48.269Z,61.00
2023-04-19T21:19:49.806Z,61.72
2023-04-19T21:21:51.353Z,61.15
2023-04-19T21:23:52.853Z,62.33
2023-04-19T21:25:54.378Z,61.65
2023-04-19T21:27:55.840Z,60.96
2023-04-19T21:29:57.315Z,61.28
2023-04-19T21:31:58.823Z,60.70
2023-04-19T21:34:00.422Z,61.02
2023-04-19T21:36:02.258Z,60.98
2023-04-19T21:38:04.026Z,61.07
2023-04-19T21:40:06.594Z,61.17
2023-04-19T21:42:08.103Z,61.76
2023-04-19T21:44:09.580Z,61.82
2023-04-19T21:46:11.051Z,62.10
2023-04-19T21:48:12.543Z,61.69
2023-04-19T21:50:14.042Z,61.53
2023-04-19T21:52:15.510Z,61.30
2023-04-19T21:54:26.702Z,61.55
2023-04-19T21:56:34.645Z,61.40
2023-04-19T21:58:36.385Z,61.30
2023-04-19T22:00:37.840Z,60.49
2023-04-19T22:02:39.489Z,60.54
2023-04-19T22:04:41.600Z,61.33
2023-04-19T22:06:46.040Z,60.91
2023-04-19T22:08:48.375Z,61.17
2023-04-19T22:10:50.487Z,60.63
2023-04-19T22:12:58.438Z,60.76
2023-04-19T22:15:01.378Z,61.06
2023-04-19T22:17:03.196Z,60.64
2023-04-19T22:19:04.720Z,60.44
2023-04-19T22:21:06.459Z,61.53
2023-04-19T22:23:07.974Z,60.72
2023-04-19T22:25:10.055Z,60.75
2023-04-19T22:27:11.612Z,60.65
2023-04-19T22:29:13.067Z,61.31
2023-04-19T22:31:14.787Z,61.43
2023-04-19T22:33:16.260Z,61.45
2023-04-19T22:35:17.821Z,61.24
2023-04-19T22:37:19.426Z,61.18
2023-04-19T22:39:21.110Z,60.77
2023-04-19T22:41:22.556Z,61.74
2023-04-19T22:43:24.476Z,61.97
2023-04-19T22:45:26.174Z,61.45
2023-04-19T22:47:27.648Z,62.27
2023-04-19T22:49:29.821Z,61.89
2023-04-19T22:51:31.350Z,61.94
2023-04-19T22:53:32.990Z,61.94
2023-04-19T22:55:34.459Z,62.26
2023-04-19T22:57:35.899Z,62.12
2023-04-19T22:59:37.492Z,61.84
2023-04-19T23:01:39.521Z,62.23
2023-04-19T23:03:41.051Z,62.48
2023-04-19T23:05:42.568Z,62.67
2023-04-19T23:07:45.187Z,62.98
2023-04-19T23:09:47.046Z,62.46
2023-04-19T23:11:48.792Z,63.12
2023-04-19T23:13:52.808Z,62.64
2023-04-19T23:15:54.525Z,62.43
2023-04-19T23:17:56.625Z,62.33
2023-04-19T23:19:58.173Z,62.66
2023-04-19T23:21:59.616Z,61.79
2023-04-19T23:24:01.118Z,62.49
2023-04-19T23:26:02.693Z,61.92
2023-04-19T23:28:04.244Z,61.18
2023-04-19T23:30:07.682Z,61.39
2023-04-19T23:32:09.150Z,61.10
2023-04-19T23:34:10.733Z,60.87
2023-04-19T23:36:12.239Z,60.77
2023-04-19T23:38:13.700Z,60.45
2023-04-19T23:40:15.367Z,60.73
2023-04-19T23:42:16.942Z,60.47
2023-04-19T23:44:18.475Z,60.77
2023-04-19T23:46:20.002Z,60.33
2023-04-19T23:48:21.483Z,60.23
2023-04-19T23:50:23.026Z,60.79
2023-04-19T23:52:24.934Z,60.84
2023-04-19T23:54:26.393Z,61.15
2023-04-19T23:56:27.895Z,61.04
2023-04-19T23:58:29.385Z,61.16
